sensor_id;sensor_type;location;lat;lon;timestamp;pressure;altitude;pressure_sealevel;temperature;humidity
73981;BME280;62348;51.412;5.436;2024-03-02T00:00:10;99662.03;;;8.01;97.51
73981;BME280;62348;51.412;5.436;2024-03-02T00:02:46;99679.25;;;8.00;98.75
73981;BME280;62348;51.412;5.436;2024-03-02T00:05:12;99702.94;;;7.98;99.26
73981;BME280;62348;51.412;5.436;2024-03-02T00:07:41;99757.06;;;7.97;100.00
73981;BME280;62348;51.412;5.436;2024-03-02T00:10:11;99761.06;;;7.94;100.00
73981;BME280;62348;51.412;5.436;2024-03-02T00:12:40;99747.38;;;7.86;100.00
73981;BME280;62348;51.412;5.436;2024-03-02T00:17:56;99771.28;;;7.56;100.00
73981;BME280;62348;51.412;5.436;2024-03-02T00:20:22;99766.69;;;7.47;100.00
73981;BME280;62348;51.412;5.436;2024-03-02T00:22:49;99768.28;;;7.37;100.00
73981;BME280;62348;51.412;5.436;2024-03-02T00:25:16;99769.06;;;7.28;100.00
73981;BME280;62348;51.412;5.436;2024-03-02T00:27:42;99768.25;;;7.22;100.00
73981;BME280;62348;51.412;5.436;2024-03-02T00:30:37;99765.81;;;7.15;100.00
73981;BME280;62348;51.412;5.436;2024-03-02T00:33:10;99761.19;;;7.06;100.00
73981;BME280;62348;51.412;5.436;2024-03-02T00:35:35;99766.84;;;6.99;100.00
73981;BME280;62348;51.412;5.436;2024-03-02T00:38:05;99775.66;;;6.94;100.00
73981;BME280;62348;51.412;5.436;2024-03-02T00:40:31;99773.78;;;6.90;100.00
73981;BME280;62348;51.412;5.436;2024-03-02T00:42:56;99770.81;;;6.86;100.00
73981;BME280;62348;51.412;5.436;2024-03-02T00:45:22;99765.97;;;6.83;100.00
73981;BME280;62348;51.412;5.436;2024-03-02T00:47:50;99769.72;;;6.82;100.00
73981;BME280;62348;51.412;5.436;2024-03-02T00:50:15;99772.91;;;6.79;100.00
73981;BME280;62348;51.412;5.436;2024-03-02T00:52:41;99775.06;;;6.77;100.00
73981;BME280;62348;51.412;5.436;2024-03-02T00:55:07;99779.63;;;6.76;100.00
73981;BME280;62348;51.412;5.436;2024-03-02T00:57:34;99776.16;;;6.76;100.00
73981;BME280;62348;51.412;5.436;2024-03-02T01:00:00;99774.50;;;6.75;100.00
73981;BME280;62348;51.412;5.436;2024-03-02T01:02:25;99770.22;;;6.74;100.00
73981;BME280;62348;51.412;5.436;2024-03-02T01:04:52;99770.47;;;6.72;100.00
73981;BME280;62348;51.412;5.436;2024-03-02T01:07:17;99775.06;;;6.72;100.00
73981;BME280;62348;51.412;5.436;2024-03-02T01:09:42;99774.22;;;6.71;100.00
73981;BME280;62348;51.412;5.436;2024-03-02T01:12:08;99776.91;;;6.71;100.00
73981;BME280;62348;51.412;5.436;2024-03-02T01:14:33;99771.25;;;6.68;100.00
73981;BME280;62348;51.412;5.436;2024-03-02T01:17:00;99766.97;;;6.67;100.00
73981;BME280;62348;51.412;5.436;2024-03-02T01:19:28;99778.25;;;6.69;100.00
73981;BME280;62348;51.412;5.436;2024-03-02T01:21:54;99771.81;;;6.70;100.00
73981;BME280;62348;51.412;5.436;2024-03-02T01:24:19;99780.13;;;6.68;100.00
73981;BME280;62348;51.412;5.436;2024-03-02T01:26:44;99782.00;;;6.68;100.00
73981;BME280;62348;51.412;5.436;2024-03-02T01:29:10;99777.72;;;6.67;100.00
73981;BME280;62348;51.412;5.436;2024-03-02T01:31:35;99779.84;;;6.64;100.00
73981;BME280;62348;51.412;5.436;2024-03-02T01:34:00;99787.91;;;6.64;100.00
73981;BME280;62348;51.412;5.436;2024-03-02T01:36:26;99790.59;;;6.64;100.00
73981;BME280;62348;51.412;5.436;2024-03-02T01:38:51;99787.34;;;6.62;100.00
73981;BME280;62348;51.412;5.436;2024-03-02T01:41:17;99785.47;;;6.63;100.00
73981;BME280;62348;51.412;5.436;2024-03-02T01:43:42;99781.97;;;6.62;100.00
73981;BME280;62348;51.412;5.436;2024-03-02T01:46:07;99781.44;;;6.60;100.00
73981;BME280;62348;51.412;5.436;2024-03-02T01:48:34;99784.69;;;6.62;100.00
73981;BME280;62348;51.412;5.436;2024-03-02T01:50:59;99792.72;;;6.62;100.00
73981;BME280;62348;51.412;5.436;2024-03-02T01:53:25;99788.41;;;6.61;100.00
73981;BME280;62348;51.412;5.436;2024-03-02T01:55:50;99794.88;;;6.60;100.00
73981;BME280;62348;51.412;5.436;2024-03-02T01:58:16;99797.56;;;6.60;100.00
73981;BME280;62348;51.412;5.436;2024-03-02T02:00:41;99798.59;;;6.59;100.00
73981;BME280;62348;51.412;5.436;2024-03-02T02:03:07;99791.34;;;6.60;100.00
73981;BME280;62348;51.412;5.436;2024-03-02T02:05:33;99778.22;;;6.58;100.00
73981;BME280;62348;51.412;5.436;2024-03-02T02:07:58;99797.00;;;6.58;100.00
73981;BME280;62348;51.412;5.436;2024-03-02T02:10:24;99793.75;;;6.56;100.00
73981;BME280;62348;51.412;5.436;2024-03-02T02:12:49;99795.38;;;6.57;100.00
73981;BME280;62348;51.412;5.436;2024-03-02T02:15:41;99795.38;;;6.57;100.00
73981;BME280;62348;51.412;5.436;2024-03-02T02:18:07;99786.78;;;6.55;100.00
73981;BME280;62348;51.412;5.436;2024-03-02T02:20:32;99784.09;;;6.55;100.00
73981;BME280;62348;51.412;5.436;2024-03-02T02:23:02;99794.03;;;6.55;100.00
73981;BME280;62348;51.412;5.436;2024-03-02T02:25:29;99783.53;;;6.53;100.00
73981;BME280;62348;51.412;5.436;2024-03-02T02:27:55;99787.56;;;6.51;100.00
73981;BME280;62348;51.412;5.436;2024-03-02T02:30:26;99783.00;;;6.51;100.00
73981;BME280;62348;51.412;5.436;2024-03-02T02:32:51;99773.56;;;6.49;100.00
73981;BME280;62348;51.412;5.436;2024-03-02T02:35:17;99773.00;;;6.47;100.00
73981;BME280;62348;51.412;5.436;2024-03-02T02:37:43;99776.78;;;6.45;100.00
73981;BME280;62348;51.412;5.436;2024-03-02T02:40:09;99767.66;;;6.47;100.00
73981;BME280;62348;51.412;5.436;2024-03-02T02:42:35;99772.22;;;6.46;100.00
73981;BME280;62348;51.412;5.436;2024-03-02T02:45:00;99778.38;;;6.47;100.00
73981;BME280;62348;51.412;5.436;2024-03-02T02:47:26;99799.06;;;6.46;100.00
73981;BME280;62348;51.412;5.436;2024-03-02T02:49:51;99791.00;;;6.46;100.00
73981;BME280;62348;51.412;5.436;2024-03-02T02:52:16;99782.16;;;6.45;100.00
73981;BME280;62348;51.412;5.436;2024-03-02T02:54:43;99775.16;;;6.44;100.00
73981;BME280;62348;51.412;5.436;2024-03-02T02:57:08;99785.91;;;6.44;100.00
73981;BME280;62348;51.412;5.436;2024-03-02T02:59:35;99788.59;;;6.44;100.00
73981;BME280;62348;51.412;5.436;2024-03-02T03:02:01;99785.91;;;6.44;100.00
73981;BME280;62348;51.412;5.436;2024-03-02T03:04:26;99790.16;;;6.40;100.00
73981;BME280;62348;51.412;5.436;2024-03-02T03:06:51;99800.34;;;6.38;100.00
73981;BME280;62348;51.412;5.436;2024-03-02T03:09:17;99796.03;;;6.37;100.00
73981;BME280;62348;51.412;5.436;2024-03-02T03:11:42;99797.13;;;6.36;100.00
73981;BME280;62348;51.412;5.436;2024-03-02T03:14:07;99790.97;;;6.36;100.00
73981;BME280;62348;51.412;5.436;2024-03-02T03:16:33;99798.19;;;6.35;100.00
73981;BME280;62348;51.412;5.436;2024-03-02T03:18:58;99797.38;;;6.35;100.00
73981;BME280;62348;51.412;5.436;2024-03-02T03:21:23;99798.47;;;6.34;100.00
73981;BME280;62348;51.412;5.436;2024-03-02T03:23:49;99797.88;;;6.32;100.00
73981;BME280;62348;51.412;5.436;2024-03-02T03:26:14;99803.25;;;6.32;100.00
73981;BME280;62348;51.412;5.436;2024-03-02T03:28:40;99794.66;;;6.30;100.00
73981;BME280;62348;51.412;5.436;2024-03-02T03:31:05;99800.03;;;6.30;100.00
73981;BME280;62348;51.412;5.436;2024-03-02T03:33:31;99809.97;;;6.29;100.00
73981;BME280;62348;51.412;5.436;2024-03-02T03:35:56;99817.22;;;6.29;100.00
73981;BME280;62348;51.412;5.436;2024-03-02T03:38:22;99820.16;;;6.27;100.00
73981;BME280;62348;51.412;5.436;2024-03-02T03:40:47;99819.91;;;6.29;100.00
73981;BME280;62348;51.412;5.436;2024-03-02T03:43:12;99808.34;;;6.28;100.00
73981;BME280;62348;51.412;5.436;2024-03-02T03:45:38;99814.53;;;6.29;100.00
73981;BME280;62348;51.412;5.436;2024-03-02T03:48:03;99809.97;;;6.29;100.00
73981;BME280;62348;51.412;5.436;2024-03-02T03:50:29;99806.47;;;6.29;100.00
73981;BME280;62348;51.412;5.436;2024-03-02T03:52:54;99820.69;;;6.29;100.00
73981;BME280;62348;51.412;5.436;2024-03-02T03:55:20;99811.84;;;6.29;100.00
73981;BME280;62348;51.412;5.436;2024-03-02T03:57:45;99815.31;;;6.29;100.00
73981;BME280;62348;51.412;5.436;2024-03-02T04:00:11;99817.22;;;6.29;100.00
73981;BME280;62348;51.412;5.436;2024-03-02T04:02:37;99820.94;;;6.28;100.00
73981;BME280;62348;51.412;5.436;2024-03-02T04:05:02;99814.78;;;6.27;100.00
73981;BME280;62348;51.412;5.436;2024-03-02T04:07:30;99811.28;;;6.27;100.00
73981;BME280;62348;51.412;5.436;2024-03-02T04:09:55;99812.34;;;6.25;100.00
73981;BME280;62348;51.412;5.436;2024-03-02T04:12:21;99818.78;;;6.24;100.00
73981;BME280;62348;51.412;5.436;2024-03-02T04:14:47;99813.69;;;6.23;100.00
73981;BME280;62348;51.412;5.436;2024-03-02T04:17:12;99812.03;;;6.22;100.00
73981;BME280;62348;51.412;5.436;2024-03-02T04:19:38;99816.06;;;6.19;100.00
73981;BME280;62348;51.412;5.436;2024-03-02T04:22:04;99817.13;;;6.18;100.00
73981;BME280;62348;51.412;5.436;2024-03-02T04:24:29;99817.13;;;6.18;100.00
73981;BME280;62348;51.412;5.436;2024-03-02T04:26:55;99817.66;;;6.15;100.00
73981;BME280;62348;51.412;5.436;2024-03-02T04:29:20;99815.75;;;6.16;100.00
73981;BME280;62348;51.412;5.436;2024-03-02T04:31:46;99814.72;;;6.17;100.00
73981;BME280;62348;51.412;5.436;2024-03-02T04:34:11;99820.88;;;6.17;100.00
73981;BME280;62348;51.412;5.436;2024-03-02T04:36:37;99822.75;;;6.17;100.00
73981;BME280;62348;51.412;5.436;2024-03-02T04:39:02;99822.47;;;6.18;100.00
73981;BME280;62348;51.412;5.436;2024-03-02T04:41:28;99817.13;;;6.18;100.00
73981;BME280;62348;51.412;5.436;2024-03-02T04:43:53;99815.25;;;6.19;100.00
73981;BME280;62348;51.412;5.436;2024-03-02T04:46:18;99815.50;;;6.17;100.00
73981;BME280;62348;51.412;5.436;2024-03-02T04:48:44;99820.88;;;6.17;100.00
73981;BME280;62348;51.412;5.436;2024-03-02T04:51:09;99819.00;;;6.18;100.00
73981;BME280;62348;51.412;5.436;2024-03-02T04:53:36;99822.75;;;6.17;100.00
73981;BME280;62348;51.412;5.436;2024-03-02T04:56:01;99827.31;;;6.16;100.00
73981;BME280;62348;51.412;5.436;2024-03-02T04:58:47;99828.38;;;6.15;100.00
73981;BME280;62348;51.412;5.436;2024-03-02T05:01:12;99829.19;;;6.16;100.00
73981;BME280;62348;51.412;5.436;2024-03-02T05:03:38;99828.63;;;6.14;100.00
73981;BME280;62348;51.412;5.436;2024-03-02T05:06:03;99828.88;;;6.12;100.00
73981;BME280;62348;51.412;5.436;2024-03-02T05:08:29;99837.19;;;6.11;100.00
73981;BME280;62348;51.412;5.436;2024-03-02T05:10:54;99834.78;;;6.09;100.00
73981;BME280;62348;51.412;5.436;2024-03-02T05:13:20;99844.97;;;6.07;100.00
73981;BME280;62348;51.412;5.436;2024-03-02T05:15:46;99841.69;;;6.05;100.00
73981;BME280;62348;51.412;5.436;2024-03-02T05:18:11;99839.28;;;6.03;100.00
73981;BME280;62348;51.412;5.436;2024-03-02T05:20:37;99839.28;;;6.03;100.00
73981;BME280;62348;51.412;5.436;2024-03-02T05:23:02;99846.25;;;6.04;100.00
73981;BME280;62348;51.412;5.436;2024-03-02T05:25:28;99847.06;;;6.05;100.00
73981;BME280;62348;51.412;5.436;2024-03-02T05:27:53;99853.25;;;6.05;100.00
73981;BME280;62348;51.412;5.436;2024-03-02T05:30:19;99853.25;;;6.05;100.00
73981;BME280;62348;51.412;5.436;2024-03-02T05:32:44;99848.94;;;6.04;100.00
73981;BME280;62348;51.412;5.436;2024-03-02T05:35:10;99858.63;;;6.05;100.00
73981;BME280;62348;51.412;5.436;2024-03-02T05:37:37;99865.06;;;6.04;100.00
73981;BME280;62348;51.412;5.436;2024-03-02T05:40:04;99861.31;;;6.05;100.00
73981;BME280;62348;51.412;5.436;2024-03-02T05:42:30;99865.84;;;6.05;100.00
73981;BME280;62348;51.412;5.436;2024-03-02T05:44:56;99865.84;;;6.05;100.00
73981;BME280;62348;51.412;5.436;2024-03-02T05:47:21;99859.69;;;6.04;100.00
73981;BME280;62348;51.412;5.436;2024-03-02T05:49:47;99856.19;;;6.04;100.00
73981;BME280;62348;51.412;5.436;2024-03-02T05:52:12;99865.84;;;6.05;100.00
73981;BME280;62348;51.412;5.436;2024-03-02T05:54:37;99858.88;;;6.04;100.00
73981;BME280;62348;51.412;5.436;2024-03-02T05:57:03;99860.75;;;6.03;100.00
73981;BME280;62348;51.412;5.436;2024-03-02T05:59:42;99859.94;;;6.03;100.00
73981;BME280;62348;51.412;5.436;2024-03-02T06:02:08;99857.25;;;6.03;100.00
73981;BME280;62348;51.412;5.436;2024-03-02T06:04:34;99864.25;;;6.04;100.00
73981;BME280;62348;51.412;5.436;2024-03-02T06:06:59;99859.94;;;6.03;100.00
73981;BME280;62348;51.412;5.436;2024-03-02T06:09:24;99870.66;;;6.03;100.00
73981;BME280;62348;51.412;5.436;2024-03-02T06:11:51;99865.81;;;6.00;100.00
73981;BME280;62348;51.412;5.436;2024-03-02T06:14:16;99869.56;;;5.99;100.00
73981;BME280;62348;51.412;5.436;2024-03-02T06:16:42;99872.25;;;5.99;100.00
73981;BME280;62348;51.412;5.436;2024-03-02T06:19:07;99873.56;;;5.96;100.00
73981;BME280;62348;51.412;5.436;2024-03-02T06:21:33;99877.31;;;5.95;100.00
73981;BME280;62348;51.412;5.436;2024-03-02T06:23:58;99878.59;;;5.93;100.00
73981;BME280;62348;51.412;5.436;2024-03-02T06:26:24;99876.72;;;5.93;100.00
73981;BME280;62348;51.412;5.436;2024-03-02T06:28:49;99887.69;;;5.92;100.00
73981;BME280;62348;51.412;5.436;2024-03-02T06:31:14;99881.53;;;5.91;100.00
73981;BME280;62348;51.412;5.436;2024-03-02T06:33:40;99881.53;;;5.91;100.00
73981;BME280;62348;51.412;5.436;2024-03-02T06:36:07;99884.22;;;5.91;100.00
73981;BME280;62348;51.412;5.436;2024-03-02T06:38:37;99889.56;;;5.91;100.00
73981;BME280;62348;51.412;5.436;2024-03-02T06:41:02;99889.56;;;5.91;100.00
73981;BME280;62348;51.412;5.436;2024-03-02T06:43:28;99893.06;;;5.92;100.00
73981;BME280;62348;51.412;5.436;2024-03-02T06:45:53;99901.94;;;5.92;100.00
73981;BME280;62348;51.412;5.436;2024-03-02T06:48:19;99905.44;;;5.93;100.00
73981;BME280;62348;51.412;5.436;2024-03-02T06:50:48;99913.47;;;5.93;100.00
73981;BME280;62348;51.412;5.436;2024-03-02T06:53:14;99910.78;;;5.93;100.00
73981;BME280;62348;51.412;5.436;2024-03-02T06:55:46;99916.72;;;5.95;100.00
73981;BME280;62348;51.412;5.436;2024-03-02T06:58:14;99917.56;;;5.95;100.00
73981;BME280;62348;51.412;5.436;2024-03-02T07:00:41;99916.25;;;5.98;100.00
73981;BME280;62348;51.412;5.436;2024-03-02T07:03:07;99929.66;;;5.98;100.00
73981;BME280;62348;51.412;5.436;2024-03-02T07:05:32;99929.41;;;5.99;100.00
73981;BME280;62348;51.412;5.436;2024-03-02T07:07:57;99928.34;;;6.00;100.00
73981;BME280;62348;51.412;5.436;2024-03-02T07:10:23;99929.47;;;6.04;100.00
73981;BME280;62348;51.412;5.436;2024-03-02T07:12:48;99923.28;;;6.04;100.00
73981;BME280;62348;51.412;5.436;2024-03-02T07:15:13;99923.03;;;6.05;100.00
73981;BME280;62348;51.412;5.436;2024-03-02T07:17:57;99921.72;;;6.08;100.00
73981;BME280;62348;51.412;5.436;2024-03-02T07:20:23;99926.59;;;6.11;100.00
73981;BME280;62348;51.412;5.436;2024-03-02T07:22:49;99932.25;;;6.15;100.00
73981;BME280;62348;51.412;5.436;2024-03-02T07:25:14;99932.53;;;6.18;100.00
73981;BME280;62348;51.412;5.436;2024-03-02T07:27:40;99935.81;;;6.20;100.00
73981;BME280;62348;51.412;5.436;2024-03-02T07:30:06;99935.03;;;6.25;100.00
73981;BME280;62348;51.412;5.436;2024-03-02T07:32:32;99935.59;;;6.27;100.00
73981;BME280;62348;51.412;5.436;2024-03-02T07:34:57;99937.22;;;6.28;100.00
73981;BME280;62348;51.412;5.436;2024-03-02T07:37:23;99941.75;;;6.28;100.00
73981;BME280;62348;51.412;5.436;2024-03-02T07:39:50;99940.72;;;6.29;100.00
73981;BME280;62348;51.412;5.436;2024-03-02T07:42:15;99939.34;;;6.26;100.00
73981;BME280;62348;51.412;5.436;2024-03-02T07:44:41;99937.22;;;6.28;100.00
73981;BME280;62348;51.412;5.436;2024-03-02T07:47:07;99933.69;;;6.28;100.00
73981;BME280;62348;51.412;5.436;2024-03-02T07:49:33;99936.66;;;6.26;100.00
73981;BME280;62348;51.412;5.436;2024-03-02T07:51:58;99940.16;;;6.27;100.00
73981;BME280;62348;51.412;5.436;2024-03-02T07:54:24;99940.72;;;6.29;100.00
73981;BME280;62348;51.412;5.436;2024-03-02T07:56:49;99943.94;;;6.31;100.00
73981;BME280;62348;51.412;5.436;2024-03-02T07:59:14;99944.25;;;6.34;100.00
73981;BME280;62348;51.412;5.436;2024-03-02T08:01:40;99946.94;;;6.34;100.00
73981;BME280;62348;51.412;5.436;2024-03-02T08:04:06;99946.41;;;6.37;100.00
73981;BME280;62348;51.412;5.436;2024-03-02T08:06:31;99941.66;;;6.44;100.00
73981;BME280;62348;51.412;5.436;2024-03-02T08:08:58;99940.16;;;6.59;100.00
73981;BME280;62348;51.412;5.436;2024-03-02T08:11:23;99933.81;;;6.75;100.00
73981;BME280;62348;51.412;5.436;2024-03-02T08:13:49;99947.94;;;6.93;100.00
73981;BME280;62348;51.412;5.436;2024-03-02T08:16:15;99948.34;;;7.12;100.00
73981;BME280;62348;51.412;5.436;2024-03-02T08:18:41;99952.22;;;7.31;100.00
73981;BME280;62348;51.412;5.436;2024-03-02T08:21:07;99944.78;;;7.54;100.00
73981;BME280;62348;51.412;5.436;2024-03-02T08:23:33;99942.44;;;7.73;100.00
73981;BME280;62348;51.412;5.436;2024-03-02T08:26:02;99937.09;;;7.88;100.00
73981;BME280;62348;51.412;5.436;2024-03-02T08:28:27;99944.94;;;8.00;100.00
73981;BME280;62348;51.412;5.436;2024-03-02T08:30:53;99941.75;;;8.08;100.00
73981;BME280;62348;51.412;5.436;2024-03-02T08:33:18;99947.94;;;8.19;100.00
73981;BME280;62348;51.412;5.436;2024-03-02T08:35:44;99952.56;;;8.34;100.00
73981;BME280;62348;51.412;5.436;2024-03-02T08:38:09;99948.03;;;8.45;100.00
73981;BME280;62348;51.412;5.436;2024-03-02T08:40:35;99951.81;;;8.54;100.00
73981;BME280;62348;51.412;5.436;2024-03-02T08:43:00;99955.03;;;8.66;98.86
73981;BME280;62348;51.412;5.436;2024-03-02T08:45:25;99955.31;;;8.75;99.44
73981;BME280;62348;51.412;5.436;2024-03-02T08:47:51;99957.72;;;8.82;95.92
73981;BME280;62348;51.412;5.436;2024-03-02T08:50:16;99958.78;;;8.86;96.54
73981;BME280;62348;51.412;5.436;2024-03-02T08:52:42;99957.72;;;8.87;95.71
73981;BME280;62348;51.412;5.436;2024-03-02T08:55:08;99958.25;;;8.89;97.55
73981;BME280;62348;51.412;5.436;2024-03-02T08:57:33;99954.47;;;8.95;96.40
73981;BME280;62348;51.412;5.436;2024-03-02T08:59:59;99955.81;;;9.03;96.73
73981;BME280;62348;51.412;5.436;2024-03-02T09:02:25;99961.19;;;9.08;94.41
73981;BME280;62348;51.412;5.436;2024-03-02T09:04:51;99954.75;;;9.09;94.86
73981;BME280;62348;51.412;5.436;2024-03-02T09:07:16;99956.06;;;9.11;94.54
73981;BME280;62348;51.412;5.436;2024-03-02T09:09:42;99966.84;;;9.11;94.56
73981;BME280;62348;51.412;5.436;2024-03-02T09:12:07;99956.88;;;9.12;94.67
73981;BME280;62348;51.412;5.436;2024-03-02T09:14:33;99962.81;;;9.14;94.00
73981;BME280;62348;51.412;5.436;2024-03-02T09:17:00;99960.91;;;9.19;92.89
73981;BME280;62348;51.412;5.436;2024-03-02T09:19:25;99960.91;;;9.25;93.00
73981;BME280;62348;51.412;5.436;2024-03-02T09:21:50;99954.66;;;9.29;92.21
73981;BME280;62348;51.412;5.436;2024-03-02T09:24:16;99968.69;;;9.31;93.10
73981;BME280;62348;51.412;5.436;2024-03-02T09:26:41;99962.50;;;9.36;90.60
73981;BME280;62348;51.412;5.436;2024-03-02T09:29:07;99960.59;;;9.42;92.90
73981;BME280;62348;51.412;5.436;2024-03-02T09:31:32;99960.00;;;9.50;93.95
73981;BME280;62348;51.412;5.436;2024-03-02T09:33:57;99964.56;;;9.60;93.11
73981;BME280;62348;51.412;5.436;2024-03-02T09:36:23;99969.41;;;9.68;91.15
73981;BME280;62348;51.412;5.436;2024-03-02T09:38:48;99959.16;;;9.70;92.41
73981;BME280;62348;51.412;5.436;2024-03-02T09:41:14;99963.16;;;9.72;90.30
73981;BME280;62348;51.412;5.436;2024-03-02T09:43:40;99953.69;;;9.75;88.86
73981;BME280;62348;51.412;5.436;2024-03-02T09:46:09;99956.97;;;9.77;88.47
73981;BME280;62348;51.412;5.436;2024-03-02T09:48:34;99947.75;;;9.78;90.83
73981;BME280;62348;51.412;5.436;2024-03-02T09:51:00;99955.56;;;9.85;89.37
73981;BME280;62348;51.412;5.436;2024-03-02T09:53:31;99953.09;;;9.88;89.08
73981;BME280;62348;51.412;5.436;2024-03-02T09:55:58;99962.56;;;9.91;87.43
73981;BME280;62348;51.412;5.436;2024-03-02T09:58:23;99949.84;;;9.91;86.02
73981;BME280;62348;51.412;5.436;2024-03-02T10:00:49;99953.66;;;9.90;86.58
73981;BME280;62348;51.412;5.436;2024-03-02T10:03:14;99952.88;;;9.85;84.42
73981;BME280;62348;51.412;5.436;2024-03-02T10:05:40;99942.88;;;9.80;86.65
73981;BME280;62348;51.412;5.436;2024-03-02T10:08:05;99941.53;;;9.83;85.14
73981;BME280;62348;51.412;5.436;2024-03-02T10:10:39;99942.56;;;9.92;86.99
73981;BME280;62348;51.412;5.436;2024-03-02T10:13:12;99942.50;;;10.02;86.35
73981;BME280;62348;51.412;5.436;2024-03-02T10:15:40;99940.59;;;10.08;83.61
73981;BME280;62348;51.412;5.436;2024-03-02T10:18:12;99933.28;;;10.08;81.88
73981;BME280;62348;51.412;5.436;2024-03-02T10:20:38;99938.66;;;10.13;82.46
73981;BME280;62348;51.412;5.436;2024-03-02T10:23:14;99921.59;;;10.18;82.85
73981;BME280;62348;51.412;5.436;2024-03-02T10:25:40;99924.56;;;10.22;80.38
73981;BME280;62348;51.412;5.436;2024-03-02T10:28:06;99931.84;;;10.26;83.52
73981;BME280;62348;51.412;5.436;2024-03-02T10:30:35;99927.50;;;10.30;81.41
73981;BME280;62348;51.412;5.436;2024-03-02T10:33:02;99928.28;;;10.36;81.62
73981;BME280;62348;51.412;5.436;2024-03-02T10:35:27;99921.75;;;10.42;81.78
73981;BME280;62348;51.412;5.436;2024-03-02T10:37:53;99932.81;;;10.46;78.83
73981;BME280;62348;51.412;5.436;2024-03-02T10:40:22;99924.69;;;10.46;79.48
73981;BME280;62348;51.412;5.436;2024-03-02T10:42:49;99927.13;;;10.47;78.34
73981;BME280;62348;51.412;5.436;2024-03-02T10:45:16;99922.50;;;10.48;78.83
73981;BME280;62348;51.412;5.436;2024-03-02T10:47:43;99915.19;;;10.48;79.52
73981;BME280;62348;51.412;5.436;2024-03-02T10:50:09;99913.84;;;10.51;79.57
73981;BME280;62348;51.412;5.436;2024-03-02T10:52:35;99913.84;;;10.51;77.35
73981;BME280;62348;51.412;5.436;2024-03-02T10:55:01;99903.03;;;10.51;77.86
73981;BME280;62348;51.412;5.436;2024-03-02T10:57:33;99909.78;;;10.53;77.22
73981;BME280;62348;51.412;5.436;2024-03-02T11:00:03;99899.47;;;10.55;76.51
73981;BME280;62348;51.412;5.436;2024-03-02T11:02:30;99897.56;;;10.56;76.64
73981;BME280;62348;51.412;5.436;2024-03-02T11:04:59;99900.50;;;10.60;77.71
73981;BME280;62348;51.412;5.436;2024-03-02T11:07:27;99895.09;;;10.60;77.84
73981;BME280;62348;51.412;5.436;2024-03-02T11:10:01;99893.22;;;10.60;78.27
73981;BME280;62348;51.412;5.436;2024-03-02T11:12:38;99896.44;;;10.62;75.91
73981;BME280;62348;51.412;5.436;2024-03-02T11:15:10;99888.56;;;10.66;78.96
73981;BME280;62348;51.412;5.436;2024-03-02T11:17:39;99891.78;;;10.68;76.64
73981;BME280;62348;51.412;5.436;2024-03-02T11:20:07;99894.50;;;10.68;75.59
73981;BME280;62348;51.412;5.436;2024-03-02T11:22:35;99896.41;;;10.67;77.20
73981;BME280;62348;51.412;5.436;2024-03-02T11:25:01;99903.16;;;10.70;76.61
73981;BME280;62348;51.412;5.436;2024-03-02T11:33:02;99886.25;;;10.83;78.40
73981;BME280;62348;51.412;5.436;2024-03-02T11:38:01;99896.72;;;10.90;75.65
73981;BME280;62348;51.412;5.436;2024-03-02T11:40:30;99893.75;;;10.91;76.16
73981;BME280;62348;51.412;5.436;2024-03-02T11:42:56;99892.94;;;10.91;77.23
73981;BME280;62348;51.412;5.436;2024-03-02T11:45:25;99876.41;;;10.92;76.06
73981;BME280;62348;51.412;5.436;2024-03-02T11:47:53;99876.41;;;10.92;76.55
73981;BME280;62348;51.412;5.436;2024-03-02T11:50:35;99877.22;;;10.93;78.04
73981;BME280;62348;51.412;5.436;2024-03-02T11:53:09;99876.41;;;10.92;75.82
73981;BME280;62348;51.412;5.436;2024-03-02T11:55:39;99875.03;;;10.95;74.05
73981;BME280;62348;51.412;5.436;2024-03-02T11:58:12;99864.50;;;10.93;74.57
73981;BME280;62348;51.412;5.436;2024-03-02T12:00:38;99865.59;;;10.92;73.31
73981;BME280;62348;51.412;5.436;2024-03-02T12:03:05;99862.13;;;10.87;72.00
73981;BME280;62348;51.412;5.436;2024-03-02T12:05:31;99859.72;;;10.85;75.46
73981;BME280;62348;51.412;5.436;2024-03-02T12:07:58;99851.63;;;10.85;74.56
73981;BME280;62348;51.412;5.436;2024-03-02T12:10:24;99836.72;;;10.88;75.91
73981;BME280;62348;51.412;5.436;2024-03-02T12:12:59;99840.72;;;10.90;76.09
73981;BME280;62348;51.412;5.436;2024-03-02T12:15:31;99832.06;;;10.93;76.62
73981;BME280;62348;51.412;5.436;2024-03-02T12:17:58;99830.16;;;10.94;75.42
73981;BME280;62348;51.412;5.436;2024-03-02T12:20:24;99824.22;;;10.92;75.17
73981;BME280;62348;51.412;5.436;2024-03-02T12:22:51;99808.78;;;10.92;76.04
73981;BME280;62348;51.412;5.436;2024-03-02T12:25:20;99810.41;;;10.93;75.65
73981;BME280;62348;51.412;5.436;2024-03-02T12:27:47;99810.13;;;10.95;75.40
73981;BME280;62348;51.412;5.436;2024-03-02T12:30:16;99810.66;;;10.97;76.70
73981;BME280;62348;51.412;5.436;2024-03-02T12:32:41;99808.97;;;11.01;76.81
73981;BME280;62348;51.412;5.436;2024-03-02T12:35:07;99802.69;;;11.06;77.49
73981;BME280;62348;51.412;5.436;2024-03-02T12:37:32;99808.03;;;11.11;74.94
73981;BME280;62348;51.412;5.436;2024-03-02T12:39:59;99812.09;;;11.13;75.23
73981;BME280;62348;51.412;5.436;2024-03-02T12:42:24;99800.16;;;11.14;75.40
73981;BME280;62348;51.412;5.436;2024-03-02T12:44:53;99800.44;;;11.13;73.93
73981;BME280;62348;51.412;5.436;2024-03-02T12:47:21;99800.16;;;11.14;74.46
73981;BME280;62348;51.412;5.436;2024-03-02T12:49:46;99799.59;;;11.18;75.32
73981;BME280;62348;51.412;5.436;2024-03-02T12:52:13;99795.19;;;11.22;74.01
73981;BME280;62348;51.412;5.436;2024-03-02T12:54:38;99783.25;;;11.23;72.47
73981;BME280;62348;51.412;5.436;2024-03-02T12:57:04;99784.31;;;11.27;73.16
73981;BME280;62348;51.412;5.436;2024-03-02T12:59:29;99790.75;;;11.31;73.97
73981;BME280;62348;51.412;5.436;2024-03-02T13:01:56;99778.25;;;11.35;75.04
73981;BME280;62348;51.412;5.436;2024-03-02T13:04:27;99770.34;;;11.39;74.06
73981;BME280;62348;51.412;5.436;2024-03-02T13:06:56;99769.75;;;11.42;73.88
73981;BME280;62348;51.412;5.436;2024-03-02T13:09:26;99770.56;;;11.42;74.24